Time;durP1;ratioP1;P1;durP2;ratioP2;P2;SDS_P1;SDS_P2;PMS_P1;PMS_P2;Temp;Humidity;BMP_temperature;BMP_pressure;BME280_temperature;BME280_humidity;BME280_pressure;Samples;Min_cycle;Max_cycle;Signal;HPM_P1;HPM_P2
2021/09/11 00:01:10;;;;;;;9.70;4.20;;;;;;;;;;4958330;28;20097;-83
2021/09/11 00:03:39;;;;;;;12.48;4.63;;;;;;;;;;4963937;28;20492;-83
2021/09/11 00:06:08;;;;;;;12.00;5.13;;;;;;;;;;4961867;28;20034;-83
2021/09/11 00:08:36;;;;;;;11.10;4.18;;;;;;;;;;4959144;28;20038;-83
2021/09/11 00:11:03;;;;;;;15.73;6.10;;;;;;;;;;4962599;28;20037;-84
2021/09/11 00:13:30;;;;;;;11.07;5.40;;;;;;;;;;4958401;28;20039;-83
2021/09/11 00:15:57;;;;;;;13.93;5.60;;;;;;;;;;4963102;28;20034;-82
2021/09/11 00:18:24;;;;;;;12.85;4.85;;;;;;;;;;4971440;28;20038;-82
2021/09/11 00:20:52;;;;;;;9.15;4.55;;;;;;;;;;4979049;28;20027;-84
2021/09/11 00:23:22;;;;;;;9.50;3.67;;;;;;;;;;4986618;28;20038;-82
2021/09/11 00:25:52;;;;;;;9.45;4.25;;;;;;;;;;4971679;28;20706;-82
2021/09/11 00:28:21;;;;;;;11.15;5.45;;;;;;;;;;4990148;28;20045;-83
2021/09/11 00:30:50;;;;;;;12.02;4.53;;;;;;;;;;4958749;28;20030;-83
2021/09/11 00:33:21;;;;;;;10.23;4.68;;;;;;;;;;4971356;28;20038;-83
2021/09/11 00:35:56;;;;;;;10.57;3.60;;;;;;;;;;4977607;28;20149;-83
2021/09/11 00:38:22;;;;;;;10.73;4.15;;;;;;;;;;4960710;28;20039;-85
2021/09/11 00:40:51;;;;;;;9.70;4.00;;;;;;;;;;4964288;28;20039;-87
2021/09/11 00:43:23;;;;;;;9.10;3.60;;;;;;;;;;4960888;28;20057;-87
2021/09/11 00:45:50;;;;;;;12.02;3.75;;;;;;;;;;4958489;28;20104;-87
2021/09/11 00:48:18;;;;;;;9.40;3.90;;;;;;;;;;4981405;28;20026;-87
2021/09/11 00:50:46;;;;;;;10.30;3.75;;;;;;;;;;4970174;28;20144;-86
2021/09/11 00:53:14;;;;;;;9.70;3.80;;;;;;;;;;4959025;28;20058;-86
2021/09/11 00:55:46;;;;;;;11.48;4.80;;;;;;;;;;4967602;28;20687;-87
2021/09/11 00:58:13;;;;;;;12.23;4.70;;;;;;;;;;4967870;28;20034;-87
2021/09/11 01:00:41;;;;;;;9.77;3.67;;;;;;;;;;4970067;28;20077;-89
2021/09/11 01:03:09;;;;;;;9.93;3.83;;;;;;;;;;4970447;28;20117;-88
2021/09/11 01:05:37;;;;;;;10.75;4.15;;;;;;;;;;4963317;28;20393;-89
2021/09/11 01:08:06;;;;;;;11.52;4.15;;;;;;;;;;4969018;28;20038;-88
2021/09/11 01:10:40;;;;;;;10.07;3.90;;;;;;;;;;4966198;28;20047;-88
2021/09/11 01:13:10;;;;;;;8.80;3.63;;;;;;;;;;4962348;28;20030;-89
2021/09/11 01:15:40;;;;;;;9.23;4.15;;;;;;;;;;4965489;28;20109;-88
2021/09/11 01:18:08;;;;;;;10.63;3.50;;;;;;;;;;4982282;28;20026;-90
2021/09/11 01:20:37;;;;;;;12.48;4.65;;;;;;;;;;4944289;28;20574;-88
2021/09/11 01:23:03;;;;;;;9.85;3.90;;;;;;;;;;4965254;28;20052;-88
2021/09/11 01:25:31;;;;;;;9.50;4.22;;;;;;;;;;4959948;28;20151;-87
2021/09/11 01:28:00;;;;;;;9.40;3.92;;;;;;;;;;4946064;28;20034;-88
2021/09/11 01:30:27;;;;;;;11.32;4.43;;;;;;;;;;4980683;28;20117;-88
2021/09/11 01:32:54;;;;;;;11.90;4.35;;;;;;;;;;4967644;28;20042;-89
2021/09/11 01:35:21;;;;;;;11.82;4.40;;;;;;;;;;4982457;28;20399;-89
2021/09/11 01:37:52;;;;;;;10.90;4.50;;;;;;;;;;4967078;28;20038;-89
2021/09/11 01:40:20;;;;;;;11.85;4.43;;;;;;;;;;4961364;28;20045;-88
2021/09/11 01:42:48;;;;;;;10.65;4.40;;;;;;;;;;4943708;28;20750;-88
2021/09/11 01:45:17;;;;;;;9.25;4.32;;;;;;;;;;4942871;28;20055;-89
2021/09/11 01:47:45;;;;;;;9.15;4.15;;;;;;;;;;4944524;28;20054;-88
2021/09/11 01:50:15;;;;;;;10.82;4.30;;;;;;;;;;4945280;28;20050;-88
2021/09/11 01:52:44;;;;;;;10.40;3.75;;;;;;;;;;4942413;28;20043;-88
2021/09/11 01:55:15;;;;;;;11.45;3.83;;;;;;;;;;4931457;28;20571;-87
2021/09/11 01:57:43;;;;;;;8.45;4.10;;;;;;;;;;4926721;28;20166;-87
2021/09/11 02:00:11;;;;;;;12.57;5.53;;;;;;;;;;4930965;28;20166;-86
2021/09/11 02:02:38;;;;;;;12.98;5.05;;;;;;;;;;4926936;28;20054;-87
2021/09/11 02:05:12;;;;;;;11.13;4.85;;;;;;;;;;4937668;28;20062;-87
2021/09/11 02:07:40;;;;;;;12.20;4.72;;;;;;;;;;4944010;28;20031;-87
2021/09/11 02:10:08;;;;;;;12.50;4.55;;;;;;;;;;4943900;28;20065;-86
2021/09/11 02:12:35;;;;;;;10.20;4.53;;;;;;;;;;4952684;28;20043;-87
2021/09/11 02:15:05;;;;;;;11.80;4.80;;;;;;;;;;4942370;28;20043;-86
2021/09/11 02:17:35;;;;;;;9.80;4.47;;;;;;;;;;4921445;28;20039;-86
2021/09/11 02:20:01;;;;;;;12.38;5.25;;;;;;;;;;4925499;28;20701;-86
2021/09/11 02:22:30;;;;;;;12.18;4.47;;;;;;;;;;4949370;28;20070;-86
2021/09/11 02:24:56;;;;;;;13.02;5.65;;;;;;;;;;4939972;28;20888;-87
2021/09/11 02:27:22;;;;;;;12.43;5.55;;;;;;;;;;4955772;28;20049;-88
2021/09/11 02:29:50;;;;;;;11.02;5.05;;;;;;;;;;4965657;28;20042;-88
2021/09/11 02:32:18;;;;;;;11.27;4.50;;;;;;;;;;4959509;28;20590;-88
2021/09/11 02:34:45;;;;;;;14.90;4.97;;;;;;;;;;4962217;28;20026;-88
2021/09/11 02:37:12;;;;;;;10.95;4.35;;;;;;;;;;4960060;28;20042;-87
2021/09/11 02:39:39;;;;;;;10.20;4.53;;;;;;;;;;4993546;28;20039;-87
2021/09/11 02:42:06;;;;;;;10.05;4.60;;;;;;;;;;4964530;28;20125;-87
2021/09/11 02:44:35;;;;;;;9.82;3.90;;;;;;;;;;4958820;28;20039;-88
2021/09/11 02:47:02;;;;;;;12.32;4.75;;;;;;;;;;4959349;28;20038;-87
2021/09/11 02:49:31;;;;;;;10.68;4.75;;;;;;;;;;4957011;28;20068;-87
2021/09/11 02:52:00;;;;;;;11.95;5.03;;;;;;;;;;4960386;28;20046;-87
2021/09/11 02:54:28;;;;;;;12.48;4.95;;;;;;;;;;4993201;28;20095;-88
2021/09/11 02:56:56;;;;;;;12.70;4.90;;;;;;;;;;4965668;28;20050;-88
2021/09/11 02:59:26;;;;;;;10.43;4.30;;;;;;;;;;4960837;28;20066;-87
2021/09/11 03:01:53;;;;;;;10.85;4.40;;;;;;;;;;4967741;28;20134;-87
2021/09/11 03:04:21;;;;;;;10.10;4.45;;;;;;;;;;4963266;28;20089;-87
2021/09/11 03:06:51;;;;;;;15.45;5.15;;;;;;;;;;4982718;28;20035;-88
2021/09/11 03:09:19;;;;;;;12.60;5.43;;;;;;;;;;4984634;28;20094;-88
2021/09/11 03:11:47;;;;;;;12.05;4.45;;;;;;;;;;4986660;28;20066;-87
2021/09/11 03:14:14;;;;;;;11.30;4.78;;;;;;;;;;4968421;28;20039;-86
2021/09/11 03:16:42;;;;;;;12.55;5.25;;;;;;;;;;4967210;28;20038;-86
2021/09/11 03:19:11;;;;;;;13.30;4.72;;;;;;;;;;4983676;28;20042;-85
2021/09/11 03:21:40;;;;;;;12.18;4.78;;;;;;;;;;4980841;28;20484;-87
2021/09/11 03:24:09;;;;;;;12.82;5.70;;;;;;;;;;4969901;28;20058;-86
2021/09/11 03:26:36;;;;;;;10.35;4.60;;;;;;;;;;4978226;28;20114;-85
2021/09/11 03:29:04;;;;;;;10.40;4.43;;;;;;;;;;4965586;28;20041;-86
2021/09/11 03:31:32;;;;;;;11.20;4.57;;;;;;;;;;4958647;28;20351;-86
2021/09/11 03:34:00;;;;;;;12.38;5.00;;;;;;;;;;4965642;28;20061;-86
2021/09/11 03:36:27;;;;;;;9.15;4.47;;;;;;;;;;4956303;28;20039;-85
2021/09/11 03:38:53;;;;;;;11.20;4.57;;;;;;;;;;4965297;28;20031;-85
2021/09/11 03:41:20;;;;;;;11.05;4.60;;;;;;;;;;4971851;28;20034;-86
2021/09/11 03:43:48;;;;;;;11.23;4.28;;;;;;;;;;4965884;28;20113;-86
2021/09/11 03:46:16;;;;;;;11.60;4.78;;;;;;;;;;4974103;28;20045;-86
2021/09/11 03:48:45;;;;;;;7.97;3.67;;;;;;;;;;4970636;28;20083;-86
2021/09/11 03:51:12;;;;;;;9.43;4.43;;;;;;;;;;4993695;28;21635;-86
2021/09/11 03:53:39;;;;;;;13.52;5.20;;;;;;;;;;5014025;28;20035;-86
2021/09/11 03:56:06;;;;;;;11.27;4.40;;;;;;;;;;5004953;28;20053;-87
2021/09/11 03:58:35;;;;;;;9.82;4.28;;;;;;;;;;4970936;28;20035;-87
2021/09/11 04:01:03;;;;;;;10.55;4.60;;;;;;;;;;4973194;28;20057;-86
2021/09/11 04:03:32;;;;;;;10.27;4.72;;;;;;;;;;4965950;28;22481;-88
2021/09/11 04:06:04;;;;;;;10.38;4.85;;;;;;;;;;4973546;28;20023;-86
2021/09/11 04:08:42;;;;;;;11.35;4.47;;;;;;;;;;4962493;28;20123;-86
2021/09/11 04:11:10;;;;;;;9.50;4.28;;;;;;;;;;4931895;28;20034;-86
2021/09/11 04:13:40;;;;;;;9.32;4.20;;;;;;;;;;4958217;28;20783;-86
2021/09/11 04:16:09;;;;;;;11.10;4.65;;;;;;;;;;4968965;28;20129;-86
2021/09/11 04:18:36;;;;;;;9.90;4.53;;;;;;;;;;4946909;28;20030;-87
2021/09/11 04:21:03;;;;;;;12.45;4.78;;;;;;;;;;4968871;28;20019;-87
2021/09/11 04:23:30;;;;;;;10.88;4.80;;;;;;;;;;4957883;28;20066;-86
2021/09/11 04:25:59;;;;;;;10.60;4.85;;;;;;;;;;4960362;28;20105;-86
2021/09/11 04:28:26;;;;;;;11.20;5.03;;;;;;;;;;4961004;28;20046;-86
2021/09/11 04:30:53;;;;;;;13.20;4.88;;;;;;;;;;4960363;28;20042;-87
2021/09/11 04:33:20;;;;;;;10.30;4.22;;;;;;;;;;4957625;28;20043;-87
2021/09/11 04:35:48;;;;;;;10.77;4.55;;;;;;;;;;4966964;28;20030;-87
2021/09/11 04:38:15;;;;;;;11.63;4.63;;;;;;;;;;4956738;28;20045;-87
2021/09/11 04:40:42;;;;;;;10.55;4.75;;;;;;;;;;4962316;28;20129;-87
2021/09/11 04:43:10;;;;;;;10.18;4.72;;;;;;;;;;4964997;28;20050;-87
2021/09/11 04:45:38;;;;;;;9.88;4.50;;;;;;;;;;4959757;28;20042;-85
2021/09/11 04:48:07;;;;;;;12.88;5.47;;;;;;;;;;4964061;28;20130;-87
2021/09/11 04:50:35;;;;;;;13.60;4.95;;;;;;;;;;4951911;28;21314;-87
2021/09/11 04:53:03;;;;;;;12.70;4.15;;;;;;;;;;4958866;28;20034;-87
2021/09/11 04:55:30;;;;;;;11.27;5.05;;;;;;;;;;4975802;28;20052;-86
2021/09/11 04:57:58;;;;;;;11.18;5.07;;;;;;;;;;4968056;28;20034;-87
2021/09/11 05:00:27;;;;;;;12.55;4.60;;;;;;;;;;4961795;28;20038;-86
2021/09/11 05:02:58;;;;;;;9.77;5.25;;;;;;;;;;4966788;28;20029;-88
2021/09/11 05:05:25;;;;;;;11.25;4.57;;;;;;;;;;4951159;28;20635;-87
2021/09/11 05:07:54;;;;;;;11.55;4.50;;;;;;;;;;4966934;28;20030;-87
2021/09/11 05:10:24;;;;;;;12.40;4.60;;;;;;;;;;4962120;28;20042;-88
2021/09/11 05:12:51;;;;;;;13.10;4.72;;;;;;;;;;4951129;28;20045;-88
2021/09/11 05:15:20;;;;;;;10.10;4.45;;;;;;;;;;4951012;28;20399;-87
2021/09/11 05:17:46;;;;;;;10.88;4.28;;;;;;;;;;4991655;28;20026;-88
2021/09/11 05:20:18;;;;;;;13.30;5.30;;;;;;;;;;4971964;28;20077;-87
2021/09/11 05:22:46;;;;;;;13.00;5.70;;;;;;;;;;4964753;28;20043;-88
2021/09/11 05:25:15;;;;;;;10.88;5.32;;;;;;;;;;4965547;28;20034;-88
2021/09/11 05:27:43;;;;;;;11.98;5.50;;;;;;;;;;4961207;28;20173;-88
2021/09/11 05:30:11;;;;;;;12.20;5.15;;;;;;;;;;4968273;28;20030;-86
2021/09/11 05:32:40;;;;;;;12.65;5.10;;;;;;;;;;4960663;28;20488;-88
2021/09/11 05:35:09;;;;;;;9.98;4.18;;;;;;;;;;4979467;28;20045;-87
2021/09/11 05:37:36;;;;;;;11.25;4.97;;;;;;;;;;4963177;28;20133;-87
2021/09/11 05:40:06;;;;;;;14.38;5.40;;;;;;;;;;4966710;28;20590;-87
2021/09/11 05:42:36;;;;;;;13.60;4.95;;;;;;;;;;4958051;28;22194;-87
2021/09/11 05:45:05;;;;;;;11.98;4.65;;;;;;;;;;4964815;28;20031;-87
2021/09/11 05:47:33;;;;;;;11.00;4.47;;;;;;;;;;4975068;28;21471;-88
2021/09/11 05:50:01;;;;;;;13.05;4.88;;;;;;;;;;4964369;28;20035;-89
2021/09/11 05:52:31;;;;;;;10.02;4.32;;;;;;;;;;4954701;28;20129;-87
2021/09/11 05:54:59;;;;;;;12.10;5.43;;;;;;;;;;4968220;28;20092;-87
2021/09/11 05:57:27;;;;;;;12.32;5.43;;;;;;;;;;4980723;28;20038;-87
2021/09/11 05:59:56;;;;;;;11.40;4.88;;;;;;;;;;4964223;28;20038;-87
2021/09/11 06:02:25;;;;;;;12.88;5.13;;;;;;;;;;4963947;28;20546;-86
2021/09/11 06:04:54;;;;;;;17.95;5.78;;;;;;;;;;4964433;28;20080;-86
2021/09/11 06:07:23;;;;;;;11.23;4.85;;;;;;;;;;4960392;28;20770;-86
2021/09/11 06:09:51;;;;;;;11.43;5.32;;;;;;;;;;4963672;28;20030;-87
2021/09/11 06:12:24;;;;;;;15.40;6.72;;;;;;;;;;4975963;28;20088;-88
2021/09/11 06:14:51;;;;;;;23.38;8.48;;;;;;;;;;4963795;28;20097;-87
2021/09/11 06:17:20;;;;;;;19.20;7.90;;;;;;;;;;4954284;28;20601;-87
2021/09/11 06:19:48;;;;;;;15.57;6.75;;;;;;;;;;4974733;28;20045;-86
2021/09/11 06:22:17;;;;;;;14.43;6.45;;;;;;;;;;4958306;28;20074;-86
2021/09/11 06:24:46;;;;;;;17.15;8.50;;;;;;;;;;4959517;28;20121;-86
2021/09/11 06:27:13;;;;;;;19.45;8.40;;;;;;;;;;4959207;28;20049;-85
2021/09/11 06:29:42;;;;;;;16.73;8.13;;;;;;;;;;4961380;28;20489;-85
2021/09/11 06:32:11;;;;;;;16.08;6.50;;;;;;;;;;4981090;28;20491;-86
2021/09/11 06:34:38;;;;;;;13.10;6.15;;;;;;;;;;4955901;28;20137;-86
2021/09/11 06:37:05;;;;;;;13.98;5.30;;;;;;;;;;4966027;28;20050;-85
2021/09/11 06:39:34;;;;;;;13.63;5.65;;;;;;;;;;4955825;28;22456;-87
2021/09/11 06:42:02;;;;;;;11.20;4.53;;;;;;;;;;4976831;28;21228;-85
2021/09/11 06:44:29;;;;;;;10.80;4.85;;;;;;;;;;4957459;28;20138;-85
2021/09/11 06:46:56;;;;;;;14.70;5.30;;;;;;;;;;4964411;28;20491;-85
2021/09/11 06:49:24;;;;;;;13.07;5.22;;;;;;;;;;4957846;28;20453;-85
2021/09/11 06:51:52;;;;;;;13.23;5.03;;;;;;;;;;4969032;28;20034;-85
2021/09/11 06:54:20;;;;;;;11.57;4.20;;;;;;;;;;4974310;28;20091;-85
2021/09/11 06:56:48;;;;;;;12.27;5.07;;;;;;;;;;4966597;28;20549;-86
2021/09/11 06:59:16;;;;;;;12.10;4.60;;;;;;;;;;4963312;28;20090;-85
2021/09/11 07:01:44;;;;;;;12.02;4.53;;;;;;;;;;4963672;28;20039;-85
2021/09/11 07:04:12;;;;;;;12.60;4.68;;;;;;;;;;4967115;28;20039;-85
2021/09/11 07:06:40;;;;;;;13.00;5.13;;;;;;;;;;4972237;28;20067;-88
2021/09/11 07:09:07;;;;;;;11.43;5.03;;;;;;;;;;4982890;28;20030;-85
2021/09/11 07:11:35;;;;;;;11.38;4.63;;;;;;;;;;4983677;28;21003;-86
2021/09/11 07:14:03;;;;;;;10.35;4.28;;;;;;;;;;4971193;28;20039;-86
2021/09/11 07:16:31;;;;;;;15.15;4.90;;;;;;;;;;4966366;28;20050;-86
2021/09/11 07:19:01;;;;;;;10.05;3.70;;;;;;;;;;4981334;28;20031;-86
2021/09/11 07:21:29;;;;;;;10.55;4.28;;;;;;;;;;5003043;28;20033;-87
2021/09/11 07:23:59;;;;;;;13.00;3.95;;;;;;;;;;4989132;28;20046;-85
2021/09/11 07:26:27;;;;;;;12.70;4.80;;;;;;;;;;4965177;28;20073;-86
2021/09/11 07:28:55;;;;;;;11.95;4.03;;;;;;;;;;4964817;28;20034;-85
2021/09/11 07:31:22;;;;;;;11.55;4.28;;;;;;;;;;4965854;28;20042;-85
2021/09/11 07:33:48;;;;;;;12.10;3.78;;;;;;;;;;4972869;28;20039;-86
2021/09/11 07:36:22;;;;;;;10.63;4.30;;;;;;;;;;4973364;28;20464;-86
2021/09/11 07:38:50;;;;;;;12.25;4.70;;;;;;;;;;4976114;28;20038;-87
2021/09/11 07:41:19;;;;;;;10.40;3.85;;;;;;;;;;4972615;28;20656;-87
2021/09/11 07:43:46;;;;;;;11.20;3.72;;;;;;;;;;4969573;28;20129;-88
2021/09/11 07:46:14;;;;;;;11.65;4.03;;;;;;;;;;4970720;28;20062;-87
2021/09/11 07:48:40;;;;;;;11.95;4.15;;;;;;;;;;4972461;28;20496;-88
2021/09/11 07:51:07;;;;;;;11.30;3.90;;;;;;;;;;4973506;28;20054;-86
2021/09/11 07:53:34;;;;;;;11.02;3.78;;;;;;;;;;4976491;28;20042;-86
2021/09/11 07:56:02;;;;;;;9.55;3.85;;;;;;;;;;4965052;28;20038;-86
2021/09/11 07:58:32;;;;;;;11.10;4.20;;;;;;;;;;4947225;28;20063;-84
2021/09/11 08:01:00;;;;;;;12.00;3.83;;;;;;;;;;4969575;28;20338;-86
2021/09/11 08:03:30;;;;;;;8.57;3.47;;;;;;;;;;4958464;28;20023;-87
2021/09/11 08:05:56;;;;;;;10.52;3.58;;;;;;;;;;4968838;28;20066;-85
2021/09/11 08:08:23;;;;;;;11.20;3.95;;;;;;;;;;4960415;28;20569;-86
2021/09/11 08:10:52;;;;;;;10.57;3.60;;;;;;;;;;4951623;28;20038;-87
2021/09/11 08:13:19;;;;;;;9.65;3.42;;;;;;;;;;4960391;28;20109;-87
2021/09/11 08:15:47;;;;;;;9.82;3.40;;;;;;;;;;4966952;28;20534;-86
2021/09/11 08:18:18;;;;;;;9.32;2.95;;;;;;;;;;4959475;28;20042;-86
2021/09/11 08:20:47;;;;;;;9.85;3.30;;;;;;;;;;4942311;28;20039;-86
2021/09/11 08:23:18;;;;;;;10.65;5.07;;;;;;;;;;4942906;28;20046;-85
2021/09/11 08:25:50;;;;;;;8.95;3.00;;;;;;;;;;4961104;28;20038;-86
2021/09/11 08:28:22;;;;;;;9.73;3.20;;;;;;;;;;4943835;28;20205;-86
2021/09/11 08:30:51;;;;;;;11.63;3.50;;;;;;;;;;4950236;28;20034;-86
2021/09/11 08:33:19;;;;;;;8.77;3.00;;;;;;;;;;4947836;28;20073;-87
2021/09/11 08:35:48;;;;;;;10.35;3.53;;;;;;;;;;4932696;28;20043;-89
2021/09/11 08:38:15;;;;;;;8.70;3.03;;;;;;;;;;4915131;28;20043;-87
2021/09/11 08:40:43;;;;;;;7.95;2.72;;;;;;;;;;4921956;28;20468;-87
2021/09/11 08:43:15;;;;;;;9.38;3.03;;;;;;;;;;4907840;29;20445;-87
2021/09/11 08:45:45;;;;;;;9.18;3.13;;;;;;;;;;4923802;28;21002;-89
2021/09/11 08:48:18;;;;;;;10.15;3.80;;;;;;;;;;4937011;28;20050;-87
2021/09/11 08:50:45;;;;;;;8.48;2.80;;;;;;;;;;4913173;29;20765;-87
2021/09/11 08:53:13;;;;;;;9.07;3.15;;;;;;;;;;4915640;28;20106;-86
2021/09/11 08:55:40;;;;;;;9.27;2.90;;;;;;;;;;4913218;28;20031;-87
2021/09/11 08:58:12;;;;;;;8.02;2.90;;;;;;;;;;4922428;28;20046;-86
2021/09/11 09:00:44;;;;;;;9.98;3.17;;;;;;;;;;4920661;28;20169;-87
2021/09/11 09:03:34;;;;;;;8.95;3.55;;;;;;;;;;4941223;28;20096;-88
2021/09/11 09:06:21;;;;;;;10.13;2.60;;;;;;;;;;4907023;28;20035;-87
2021/09/11 09:08:54;;;;;;;7.88;2.70;;;;;;;;;;4933313;28;20058;-89
2021/09/11 09:11:27;;;;;;;8.73;2.40;;;;;;;;;;4924560;28;20090;-89
2021/09/11 09:14:21;;;;;;;9.93;2.80;;;;;;;;;;4932160;28;20045;-89
2021/09/11 09:16:52;;;;;;;7.93;3.13;;;;;;;;;;4944326;28;20038;-88
2021/09/11 09:19:33;;;;;;;9.80;3.10;;;;;;;;;;4937931;28;20122;-90
2021/09/11 09:22:05;;;;;;;15.73;2.78;;;;;;;;;;4968916;28;20066;-91
2021/09/11 09:24:33;;;;;;;8.23;2.70;;;;;;;;;;4950093;28;21326;-91
2021/09/11 09:27:12;;;;;;;9.05;2.90;;;;;;;;;;4985106;28;20043;-90
2021/09/11 09:29:41;;;;;;;9.27;3.67;;;;;;;;;;4958981;28;20042;-89
2021/09/11 09:32:17;;;;;;;6.95;2.38;;;;;;;;;;4956637;28;20091;-89
2021/09/11 09:34:48;;;;;;;6.65;2.30;;;;;;;;;;4978594;28;20107;-90
2021/09/11 09:37:19;;;;;;;8.05;2.60;;;;;;;;;;4974706;28;20042;-89
2021/09/11 09:39:51;;;;;;;9.52;2.65;;;;;;;;;;4972534;28;20046;-89
2021/09/11 09:42:20;;;;;;;8.32;2.22;;;;;;;;;;4952557;28;20191;-89
2021/09/11 09:44:52;;;;;;;8.45;2.45;;;;;;;;;;4989608;28;20257;-88
2021/09/11 09:47:26;;;;;;;7.75;2.50;;;;;;;;;;4965488;28;20041;-89
2021/09/11 09:50:11;;;;;;;8.18;2.22;;;;;;;;;;4981499;28;20042;-88
2021/09/11 09:52:41;;;;;;;7.50;2.70;;;;;;;;;;4976249;28;20039;-88
2021/09/11 09:55:13;;;;;;;7.53;2.53;;;;;;;;;;4963210;28;20042;-89
2021/09/11 09:57:41;;;;;;;8.70;2.28;;;;;;;;;;4973472;28;20629;-90
2021/09/11 10:00:10;;;;;;;7.38;2.17;;;;;;;;;;4975643;28;20034;-91
2021/09/11 10:02:39;;;;;;;7.40;2.15;;;;;;;;;;4980314;28;20038;-90
2021/09/11 10:05:07;;;;;;;7.55;2.30;;;;;;;;;;4971892;28;20046;-90
2021/09/11 10:07:36;;;;;;;7.47;2.17;;;;;;;;;;4987204;28;20046;-91
2021/09/11 10:10:04;;;;;;;7.82;2.20;;;;;;;;;;4970811;28;20039;-91
2021/09/11 10:12:46;;;;;;;9.63;2.53;;;;;;;;;;4969974;28;20369;-92
2021/09/11 10:15:35;;;;;;;8.40;2.72;;;;;;;;;;4965980;28;20030;-92
2021/09/11 10:18:04;;;;;;;8.90;2.60;;;;;;;;;;4996488;28;20038;-92
2021/09/11 10:20:52;;;;;;;7.43;2.33;;;;;;;;;;4987877;28;20038;-91
2021/09/11 10:23:21;;;;;;;7.93;2.25;;;;;;;;;;4951537;28;20031;-92
2021/09/11 10:25:49;;;;;;;10.27;2.88;;;;;;;;;;4955960;28;20094;-93
2021/09/11 10:28:26;;;;;;;7.22;2.17;;;;;;;;;;4914759;28;20030;-92
2021/09/11 10:31:12;;;;;;;12.23;3.10;;;;;;;;;;4952980;28;20066;-93
2021/09/11 10:33:43;;;;;;;9.30;2.55;;;;;;;;;;4970660;28;20090;-92
2021/09/11 10:36:31;;;;;;;7.68;2.05;;;;;;;;;;4955606;28;20138;-92
2021/09/11 10:39:09;;;;;;;8.32;2.40;;;;;;;;;;4944207;28;20031;-92
2021/09/11 10:41:38;;;;;;;7.03;2.38;;;;;;;;;;4955198;28;20912;-92
2021/09/11 10:44:09;;;;;;;7.40;2.72;;;;;;;;;;4948618;28;20043;-92
2021/09/11 10:46:49;;;;;;;6.78;2.20;;;;;;;;;;4934317;28;20769;-92
2021/09/11 10:49:28;;;;;;;7.68;2.22;;;;;;;;;;4920921;28;20063;-92
2021/09/11 10:52:13;;;;;;;7.45;2.45;;;;;;;;;;4938328;28;20120;-92
2021/09/11 10:54:44;;;;;;;11.00;2.53;;;;;;;;;;4938181;28;20118;-93
2021/09/11 10:57:17;;;;;;;6.55;2.08;;;;;;;;;;4938961;28;20043;-91
2021/09/11 10:59:50;;;;;;;7.60;2.58;;;;;;;;;;4951083;28;20032;-92
2021/09/11 11:02:36;;;;;;;8.80;2.80;;;;;;;;;;4931268;28;20043;-91
2021/09/11 11:05:17;;;;;;;10.25;2.60;;;;;;;;;;4934936;28;20122;-92
2021/09/11 11:07:47;;;;;;;9.77;2.55;;;;;;;;;;4936542;28;20062;-92
2021/09/11 11:10:14;;;;;;;7.10;2.22;;;;;;;;;;4950342;28;20045;-92
2021/09/11 11:12:46;;;;;;;6.55;2.25;;;;;;;;;;4964021;28;20031;-92
2021/09/11 11:15:34;;;;;;;7.13;2.15;;;;;;;;;;4923757;29;20075;-91
2021/09/11 11:18:02;;;;;;;7.18;2.30;;;;;;;;;;4916395;29;20074;-92
2021/09/11 11:20:31;;;;;;;8.20;2.22;;;;;;;;;;4890762;29;20051;-92
2021/09/11 11:23:10;;;;;;;7.90;2.42;;;;;;;;;;4897252;29;20627;-91
2021/09/11 11:26:00;;;;;;;9.35;2.30;;;;;;;;;;4904152;29;20595;-91
2021/09/11 11:28:28;;;;;;;5.85;2.00;;;;;;;;;;4886074;29;20068;-92
2021/09/11 11:30:58;;;;;;;8.77;2.30;;;;;;;;;;4888689;29;20059;-92
2021/09/11 11:33:27;;;;;;;10.98;2.70;;;;;;;;;;4895576;29;20036;-91
2021/09/11 11:35:55;;;;;;;8.52;2.88;;;;;;;;;;4905073;29;20475;-91
2021/09/11 11:38:29;;;;;;;8.40;2.60;;;;;;;;;;4888512;29;20044;-85
2021/09/11 11:41:04;;;;;;;10.38;2.92;;;;;;;;;;4889949;29;20047;-85
2021/09/11 11:43:34;;;;;;;7.38;2.35;;;;;;;;;;4884079;29;20061;-85
2021/09/11 11:46:07;;;;;;;8.25;3.08;;;;;;;;;;4887644;29;20781;-85
2021/09/11 11:48:33;;;;;;;8.05;3.00;;;;;;;;;;4888762;29;20064;-85
2021/09/11 11:51:14;;;;;;;9.02;2.88;;;;;;;;;;4870416;29;20033;-84
2021/09/11 11:53:45;;;;;;;8.93;3.20;;;;;;;;;;4891764;29;20043;-84
2021/09/11 11:56:16;;;;;;;9.45;3.25;;;;;;;;;;4882858;29;20040;-85
2021/09/11 11:58:59;;;;;;;8.30;3.30;;;;;;;;;;4896836;29;20107;-85
2021/09/11 12:01:31;;;;;;;8.95;2.92;;;;;;;;;;4875522;29;20040;-86
2021/09/11 12:03:58;;;;;;;8.52;2.47;;;;;;;;;;4885237;29;20048;-85
2021/09/11 12:06:29;;;;;;;8.68;3.10;;;;;;;;;;4871304;29;20036;-85
2021/09/11 12:09:04;;;;;;;7.70;2.60;;;;;;;;;;4899667;29;20087;-85
2021/09/11 12:11:32;;;;;;;9.85;3.00;;;;;;;;;;4874858;29;20060;-85
2021/09/11 12:14:04;;;;;;;10.52;3.03;;;;;;;;;;4893687;29;20036;-86
2021/09/11 12:16:34;;;;;;;11.65;3.10;;;;;;;;;;4873914;29;20046;-85
2021/09/11 12:19:29;;;;;;;12.02;2.92;;;;;;;;;;4926356;28;20043;-85
2021/09/11 12:21:55;;;;;;;9.27;3.50;;;;;;;;;;4942730;28;20968;-85
2021/09/11 12:24:24;;;;;;;9.73;2.80;;;;;;;;;;4950951;28;20030;-86
2021/09/11 12:26:54;;;;;;;8.27;2.78;;;;;;;;;;4953113;28;20035;-85
2021/09/11 12:29:27;;;;;;;8.93;2.80;;;;;;;;;;4926243;28;20034;-86
2021/09/11 12:32:06;;;;;;;7.78;2.75;;;;;;;;;;4928658;28;20046;-85
2021/09/11 12:34:55;;;;;;;7.30;2.47;;;;;;;;;;4892561;28;20035;-85
2021/09/11 12:37:25;;;;;;;9.50;3.03;;;;;;;;;;4924417;28;20071;-86
2021/09/11 12:39:57;;;;;;;9.35;2.72;;;;;;;;;;4940958;28;20046;-85
2021/09/11 12:42:27;;;;;;;8.30;3.60;;;;;;;;;;4941343;28;20306;-85
2021/09/11 12:44:54;;;;;;;9.73;2.97;;;;;;;;;;4930886;28;20124;-86
2021/09/11 12:47:26;;;;;;;8.15;2.53;;;;;;;;;;4919534;28;20046;-86
2021/09/11 12:49:53;;;;;;;10.13;3.30;;;;;;;;;;4935978;28;20043;-86
2021/09/11 12:52:23;;;;;;;24.10;2.90;;;;;;;;;;4940911;28;20186;-86
2021/09/11 12:54:53;;;;;;;10.45;2.55;;;;;;;;;;4944202;28;20039;-86
2021/09/11 12:57:20;;;;;;;6.70;2.30;;;;;;;;;;4941282;28;20393;-85
2021/09/11 12:59:49;;;;;;;10.45;2.45;;;;;;;;;;4923347;28;20023;-85
2021/09/11 13:02:37;;;;;;;8.32;2.83;;;;;;;;;;4916038;28;20082;-85
2021/09/11 13:05:05;;;;;;;9.57;2.60;;;;;;;;;;4925303;28;20036;-85
2021/09/11 13:07:36;;;;;;;9.52;2.67;;;;;;;;;;4916700;28;20047;-86
2021/09/11 13:10:07;;;;;;;7.47;2.40;;;;;;;;;;4920808;28;20772;-85
2021/09/11 13:12:39;;;;;;;6.93;2.20;;;;;;;;;;4920445;28;20864;-85
2021/09/11 13:15:06;;;;;;;8.98;2.60;;;;;;;;;;4909480;29;20065;-85
2021/09/11 13:17:38;;;;;;;9.25;2.38;;;;;;;;;;4919115;28;20075;-86
2021/09/11 13:20:08;;;;;;;9.63;2.85;;;;;;;;;;4919644;28;20039;-86
2021/09/11 13:22:35;;;;;;;7.70;2.67;;;;;;;;;;4919074;28;20410;-86
2021/09/11 13:25:06;;;;;;;7.38;2.75;;;;;;;;;;4923877;28;20046;-86
2021/09/11 13:27:36;;;;;;;10.15;2.97;;;;;;;;;;4917298;28;23286;-86
2021/09/11 13:30:03;;;;;;;7.68;2.58;;;;;;;;;;4923271;28;20066;-86
2021/09/11 13:32:29;;;;;;;11.23;5.13;;;;;;;;;;4914840;28;20043;-85
2021/09/11 13:34:57;;;;;;;7.38;3.05;;;;;;;;;;4921499;28;20039;-84
2021/09/11 13:37:25;;;;;;;7.15;2.80;;;;;;;;;;4919691;28;20043;-85
2021/09/11 13:39:52;;;;;;;7.53;3.22;;;;;;;;;;4919385;28;20071;-84
2021/09/11 13:42:19;;;;;;;7.15;2.55;;;;;;;;;;4920522;28;20038;-87
2021/09/11 13:44:53;;;;;;;9.48;3.70;;;;;;;;;;4964506;28;20412;-86
2021/09/11 13:47:19;;;;;;;8.35;3.33;;;;;;;;;;4981262;28;20108;-86
2021/09/11 13:49:47;;;;;;;7.68;2.72;;;;;;;;;;4959985;28;20055;-86
2021/09/11 13:52:16;;;;;;;6.35;2.50;;;;;;;;;;4951873;28;20299;-84
2021/09/11 13:54:45;;;;;;;7.18;2.65;;;;;;;;;;4971555;28;20111;-86
2021/09/11 13:57:14;;;;;;;9.13;2.90;;;;;;;;;;4975136;28;20034;-84
2021/09/11 13:59:44;;;;;;;7.22;2.58;;;;;;;;;;4968815;28;20052;-84
2021/09/11 14:02:15;;;;;;;7.32;2.60;;;;;;;;;;4964234;28;20394;-84
2021/09/11 14:04:43;;;;;;;10.18;4.18;;;;;;;;;;4960623;28;20097;-84
2021/09/11 14:07:13;;;;;;;11.45;4.03;;;;;;;;;;4973036;28;20105;-85
2021/09/11 14:09:40;;;;;;;8.63;3.58;;;;;;;;;;4960096;28;20096;-85
2021/09/11 14:12:08;;;;;;;9.70;3.47;;;;;;;;;;4980623;28;20057;-84
2021/09/11 14:14:41;;;;;;;9.35;3.42;;;;;;;;;;4921976;28;20038;-86
2021/09/11 14:17:12;;;;;;;9.25;4.05;;;;;;;;;;4965867;28;20031;-84
2021/09/11 14:19:40;;;;;;;10.07;3.70;;;;;;;;;;4980867;28;20046;-84
2021/09/11 14:22:10;;;;;;;9.90;3.40;;;;;;;;;;4974693;28;20045;-86
2021/09/11 14:24:38;;;;;;;10.63;3.67;;;;;;;;;;4964594;28;25345;-86
2021/09/11 14:27:06;;;;;;;9.50;3.47;;;;;;;;;;4966140;28;20030;-86
2021/09/11 14:29:35;;;;;;;15.48;4.25;;;;;;;;;;4964973;28;20046;-86
2021/09/11 14:32:04;;;;;;;11.60;4.10;;;;;;;;;;5009379;28;20022;-86
2021/09/11 14:34:34;;;;;;;16.77;4.47;;;;;;;;;;4975783;28;20129;-87
2021/09/11 14:37:04;;;;;;;18.02;5.32;;;;;;;;;;4974664;28;20065;-87
2021/09/11 14:39:33;;;;;;;10.20;4.00;;;;;;;;;;4965049;28;20058;-87
2021/09/11 14:42:05;;;;;;;11.48;4.30;;;;;;;;;;4965210;28;20035;-87
2021/09/11 14:44:38;;;;;;;12.00;4.47;;;;;;;;;;4956060;28;23210;-86
2021/09/11 14:47:09;;;;;;;14.70;3.95;;;;;;;;;;4973073;28;20043;-87
2021/09/11 14:49:38;;;;;;;12.20;4.40;;;;;;;;;;4941799;28;20925;-87
2021/09/11 14:52:16;;;;;;;11.32;4.13;;;;;;;;;;4960310;28;20068;-87